createdAt,value
2018-06-11T00:01:24.663Z,91.60
2018-06-11T00:03:53.036Z,91.70
2018-06-11T00:06:21.330Z,91.70
2018-06-11T00:08:49.667Z,91.80
2018-06-11T00:11:17.991Z,92.00
2018-06-11T00:13:46.363Z,92.10
2018-06-11T00:16:14.683Z,92.40
2018-06-11T00:18:43.007Z,92.40
2018-06-11T00:21:11.347Z,92.60
2018-06-11T00:23:39.663Z,92.70
2018-06-11T00:26:08.008Z,92.90
2018-06-11T00:28:36.342Z,93.00
2018-06-11T00:31:04.686Z,93.00
2018-06-11T00:33:33.119Z,93.10
2018-06-11T00:36:01.531Z,93.10
2018-06-11T00:38:29.839Z,93.40
2018-06-11T00:40:58.175Z,93.50
2018-06-11T00:43:26.499Z,93.50
2018-06-11T00:45:54.870Z,93.50
2018-06-11T00:48:23.195Z,93.60
2018-06-11T00:50:51.539Z,93.50
2018-06-11T00:53:19.942Z,93.60
2018-06-11T00:55:59.767Z,93.70
2018-06-11T00:58:28.095Z,93.60
2018-06-11T01:00:56.443Z,93.80
2018-06-11T01:03:24.766Z,93.90
2018-06-11T01:05:53.100Z,94.00
2018-06-11T01:10:49.493Z,94.20
2018-06-11T01:13:17.819Z,94.10
2018-06-11T01:15:46.167Z,94.30
2018-06-11T01:18:14.487Z,94.30
2018-06-11T01:20:42.832Z,94.30
2018-06-11T01:23:11.155Z,94.40
2018-06-11T01:25:39.503Z,94.50
2018-06-11T01:28:08.303Z,94.50
2018-06-11T01:30:36.651Z,94.40
2018-06-11T01:33:04.995Z,94.50
2018-06-11T01:35:33.335Z,94.40
2018-06-11T01:38:01.654Z,94.40
2018-06-11T01:40:29.991Z,94.50
2018-06-11T01:42:58.319Z,94.40
2018-06-11T01:45:26.659Z,94.30
2018-06-11T01:47:55.004Z,94.40
2018-06-11T01:50:23.343Z,94.40
2018-06-11T01:52:51.663Z,94.30
2018-06-11T01:55:20.004Z,94.40
2018-06-11T01:57:48.319Z,94.30
2018-06-11T02:00:16.655Z,94.30
2018-06-11T02:02:44.974Z,94.40
2018-06-11T02:05:13.331Z,94.70
2018-06-11T02:07:41.651Z,94.60
2018-06-11T02:10:09.990Z,94.50
2018-06-11T02:12:38.312Z,94.40
2018-06-11T02:15:06.719Z,94.50
2018-06-11T02:17:35.035Z,94.60
2018-06-11T02:20:03.380Z,94.60
2018-06-11T02:22:31.703Z,94.70
2018-06-11T02:25:00.095Z,94.60
2018-06-11T02:27:28.427Z,94.50
2018-06-11T02:29:56.754Z,94.50
2018-06-11T02:32:25.110Z,94.70
2018-06-11T02:34:53.431Z,95.10
2018-06-11T02:37:21.788Z,95.50
2018-06-11T02:39:50.111Z,95.60
2018-06-11T02:42:18.456Z,95.60
2018-06-11T02:44:46.784Z,95.60
2018-06-11T02:47:15.151Z,95.60
2018-06-11T02:49:43.470Z,95.90
2018-06-11T02:52:11.804Z,96.10
2018-06-11T02:57:08.207Z,96.20
2018-06-11T02:59:36.527Z,96.20
2018-06-11T03:02:04.855Z,96.40
2018-06-11T03:04:33.175Z,96.50
2018-06-11T03:07:01.515Z,96.50
2018-06-11T03:09:29.839Z,96.50
2018-06-11T03:11:58.183Z,96.50
2018-06-11T03:14:26.511Z,96.50
2018-06-11T03:16:54.855Z,96.60
2018-06-11T03:19:23.175Z,96.50
2018-06-11T03:21:51.510Z,96.60
2018-06-11T03:24:19.831Z,96.70
2018-06-11T03:26:48.171Z,96.90
2018-06-11T03:29:16.482Z,96.70
2018-06-11T03:31:44.823Z,96.90
2018-06-11T03:34:13.147Z,96.90
2018-06-11T03:36:41.547Z,96.90
2018-06-11T03:39:09.970Z,96.90
2018-06-11T03:41:38.303Z,96.70
2018-06-11T03:44:06.626Z,96.60
2018-06-11T03:46:34.987Z,96.80
2018-06-11T03:49:03.303Z,96.80
2018-06-11T03:51:31.639Z,97.00
2018-06-11T03:53:59.967Z,97.20
2018-06-11T03:56:28.303Z,97.10
2018-06-11T03:58:56.627Z,97.10
2018-06-11T04:01:24.967Z,97.20
2018-06-11T04:03:53.298Z,97.10
2018-06-11T04:06:21.663Z,97.10
2018-06-11T04:08:49.975Z,97.20
2018-06-11T04:11:18.319Z,97.20
2018-06-11T04:13:46.634Z,97.10
2018-06-11T04:16:14.972Z,97.10
2018-06-11T04:18:43.295Z,97.10
2018-06-11T04:21:11.635Z,96.90
2018-06-11T04:23:39.958Z,97.10
2018-06-11T04:26:08.287Z,97.00
2018-06-11T04:28:36.610Z,96.80
2018-06-11T04:31:04.931Z,97.00
2018-06-11T04:33:33.280Z,96.80
2018-06-11T04:36:01.611Z,96.90
2018-06-11T04:38:29.942Z,97.00
2018-06-11T04:40:58.271Z,97.10
2018-06-11T04:43:26.605Z,96.50
2018-06-11T04:45:54.931Z,96.60
2018-06-11T04:48:23.303Z,97.00
2018-06-11T04:50:51.672Z,96.90
2018-06-11T04:53:20.027Z,96.80
2018-06-11T04:55:48.359Z,96.70
2018-06-11T04:58:16.710Z,96.70
2018-06-11T05:00:45.044Z,96.40
2018-06-11T05:03:13.480Z,96.10
2018-06-11T05:05:41.815Z,95.60
2018-06-11T05:08:10.190Z,95.60
2018-06-11T05:10:38.507Z,95.30
2018-06-11T05:13:06.855Z,95.30
2018-06-11T05:15:35.175Z,95.50
2018-06-11T05:18:03.543Z,95.70
2018-06-11T05:20:31.959Z,95.40
2018-06-11T05:23:00.303Z,95.20
2018-06-11T05:25:28.633Z,95.10
2018-06-11T05:27:57.423Z,95.00
2018-06-11T05:30:25.747Z,95.10
2018-06-11T05:32:54.097Z,95.10
2018-06-11T05:37:50.602Z,94.70
2018-06-11T05:40:19.033Z,93.70
2018-06-11T05:42:47.322Z,93.80
2018-06-11T05:45:15.655Z,93.30
2018-06-11T05:47:44.015Z,92.90
2018-06-11T05:50:12.351Z,92.90
2018-06-11T05:52:40.702Z,92.50
2018-06-11T05:55:09.054Z,92.90
2018-06-11T05:57:37.399Z,92.60
2018-06-11T06:00:05.755Z,92.80
2018-06-11T06:02:34.105Z,92.80
2018-06-11T06:05:02.443Z,93.30
2018-06-11T06:07:30.790Z,93.20
2018-06-11T06:09:59.119Z,92.10
2018-06-11T06:12:27.466Z,91.20
2018-06-11T06:14:55.794Z,90.70
2018-06-11T06:17:24.139Z,89.90
2018-06-11T06:22:20.537Z,88.30
2018-06-11T06:24:48.864Z,87.80
2018-06-11T06:27:17.229Z,87.70
2018-06-11T06:29:45.555Z,87.50
2018-06-11T06:32:13.883Z,87.00
2018-06-11T06:37:10.417Z,86.90
2018-06-11T06:39:38.768Z,87.40
2018-06-11T06:42:07.101Z,88.20
2018-06-11T06:44:35.447Z,88.70
2018-06-11T06:47:03.949Z,89.30
2018-06-11T06:49:32.294Z,88.90
2018-06-11T06:52:00.624Z,88.80
2018-06-11T06:54:28.975Z,88.70
2018-06-11T06:56:57.335Z,88.30
2018-06-11T06:59:25.680Z,86.90
2018-06-11T07:04:22.074Z,86.10
2018-06-11T07:06:50.404Z,85.20
2018-06-11T07:09:18.753Z,84.90
2018-06-11T07:11:47.091Z,83.90
2018-06-11T07:14:15.459Z,84.40
2018-06-11T07:16:43.786Z,85.60
2018-06-11T07:19:12.127Z,85.40
2018-06-11T07:21:40.451Z,84.50
2018-06-11T07:24:08.824Z,84.80
2018-06-11T07:26:37.155Z,85.20
2018-06-11T07:29:05.500Z,83.70
2018-06-11T07:31:33.859Z,83.60
2018-06-11T07:34:02.223Z,83.70
2018-06-11T07:36:30.691Z,82.90
2018-06-11T07:38:59.035Z,84.20
2018-06-11T07:41:27.359Z,83.60
2018-06-11T07:43:55.707Z,83.00
2018-06-11T07:46:24.039Z,83.00
2018-06-11T07:48:52.389Z,81.70
2018-06-11T07:51:20.711Z,82.20
2018-06-11T07:53:49.050Z,82.20
2018-06-11T07:56:17.358Z,83.30
2018-06-11T07:58:45.695Z,83.70
2018-06-11T08:01:14.008Z,84.00
2018-06-11T08:03:42.345Z,83.80
2018-06-11T08:06:10.667Z,84.90
2018-06-11T08:08:39.015Z,83.50
2018-06-11T08:11:07.331Z,83.50
2018-06-11T08:13:35.686Z,83.10
2018-06-11T08:16:04.008Z,82.60
2018-06-11T08:18:32.343Z,82.00
2018-06-11T08:21:00.683Z,82.70
2018-06-11T08:23:29.023Z,81.50
2018-06-11T08:25:57.347Z,80.90
2018-06-11T08:28:25.678Z,79.20
2018-06-11T08:30:54.011Z,79.50
2018-06-11T08:33:22.337Z,79.70
2018-06-11T08:35:50.686Z,78.60
2018-06-11T08:38:19.018Z,77.30
2018-06-11T08:40:51.263Z,77.40
2018-06-11T08:43:19.763Z,78.30
2018-06-11T08:45:48.111Z,78.70
2018-06-11T08:48:16.459Z,80.50
2018-06-11T08:50:44.823Z,79.20
2018-06-11T08:53:13.147Z,79.20
2018-06-11T08:55:41.491Z,79.40
2018-06-11T08:58:09.806Z,80.70
2018-06-11T09:00:38.163Z,78.50
2018-06-11T09:03:06.545Z,79.40
2018-06-11T09:05:34.867Z,79.30
2018-06-11T09:08:03.196Z,79.50
2018-06-11T09:10:31.543Z,79.20
2018-06-11T09:12:59.872Z,78.50
2018-06-11T09:15:28.224Z,77.60
2018-06-11T09:17:56.589Z,78.30
2018-06-11T09:20:24.919Z,79.10
2018-06-11T09:22:53.250Z,79.60
2018-06-11T09:25:21.594Z,79.40
2018-06-11T09:27:49.923Z,79.10
2018-06-11T09:30:18.276Z,79.60
2018-06-11T09:32:46.607Z,79.80
2018-06-11T09:35:14.959Z,79.30
2018-06-11T09:37:43.287Z,79.10
2018-06-11T09:40:11.679Z,79.40
2018-06-11T09:42:40.012Z,77.80
2018-06-11T09:45:08.367Z,77.70
2018-06-11T09:47:36.714Z,78.70
2018-06-11T09:50:05.127Z,78.50
2018-06-11T09:52:33.454Z,77.20
2018-06-11T09:55:01.803Z,76.80
2018-06-11T09:57:30.137Z,76.40
2018-06-11T09:59:58.486Z,76.30
2018-06-11T10:04:54.879Z,77.00
2018-06-11T10:07:23.203Z,76.90
2018-06-11T10:09:51.547Z,76.50
2018-06-11T10:12:20.031Z,76.40
2018-06-11T10:14:48.315Z,75.60
2018-06-11T10:17:16.643Z,75.70
2018-06-11T10:19:44.995Z,75.30
2018-06-11T10:22:13.319Z,75.80
2018-06-11T10:24:41.683Z,75.80
2018-06-11T10:27:10.008Z,72.60
2018-06-11T10:29:38.359Z,76.20
2018-06-11T10:32:06.715Z,75.50
2018-06-11T10:34:35.043Z,75.30
2018-06-11T10:37:03.411Z,74.50
2018-06-11T10:39:31.750Z,75.80
2018-06-11T10:42:00.095Z,74.60
2018-06-11T10:44:28.447Z,76.00
2018-06-11T10:46:56.938Z,75.20
2018-06-11T10:49:25.262Z,73.90
2018-06-11T10:51:53.746Z,75.60
2018-06-11T10:54:22.089Z,74.80
2018-06-11T10:56:50.440Z,74.00
2018-06-11T10:59:18.779Z,73.00
2018-06-11T11:01:47.147Z,72.40
2018-06-11T11:04:15.477Z,72.90
2018-06-11T11:06:43.843Z,74.00
2018-06-11T11:09:12.244Z,73.50
2018-06-11T11:11:40.643Z,74.10
2018-06-11T11:14:09.028Z,75.20
2018-06-11T11:16:37.391Z,73.40
2018-06-11T11:19:05.979Z,73.00
2018-06-11T11:21:34.357Z,72.50
2018-06-11T11:24:02.747Z,72.00
2018-06-11T11:26:31.075Z,71.00
2018-06-11T11:28:59.436Z,71.50
2018-06-11T11:31:27.783Z,71.70
2018-06-11T11:33:56.135Z,71.40
2018-06-11T11:36:24.483Z,72.50
2018-06-11T11:38:52.816Z,71.50
2018-06-11T11:41:21.167Z,71.00
2018-06-11T11:43:49.522Z,71.10
2018-06-11T11:46:17.905Z,70.40
2018-06-11T11:48:46.255Z,69.60
2018-06-11T11:51:15.260Z,70.60
2018-06-11T11:53:43.707Z,70.70
2018-06-11T11:56:12.168Z,69.60
2018-06-11T11:58:40.491Z,68.50
2018-06-11T12:01:08.843Z,69.40
2018-06-11T12:03:37.238Z,70.20
2018-06-11T12:06:05.586Z,69.00
2018-06-11T12:08:33.999Z,70.60
2018-06-11T12:11:02.359Z,69.20
2018-06-11T12:13:30.667Z,69.80
2018-06-11T12:15:58.995Z,69.80
2018-06-11T12:18:27.327Z,69.70
2018-06-11T12:20:55.655Z,67.60
2018-06-11T12:23:24.044Z,68.30
2018-06-11T12:25:52.392Z,67.80
2018-06-11T12:28:20.719Z,67.40
2018-06-11T12:30:49.051Z,68.60
2018-06-11T12:33:17.402Z,67.30
2018-06-11T12:35:45.739Z,69.00
2018-06-11T12:38:14.091Z,67.90
2018-06-11T12:40:42.423Z,68.40
2018-06-11T12:43:10.764Z,68.20
2018-06-11T12:45:39.096Z,66.80
2018-06-11T12:48:07.461Z,65.30
2018-06-11T12:50:35.919Z,67.30
2018-06-11T12:53:04.283Z,66.20
2018-06-11T12:55:32.628Z,68.30
2018-06-11T12:58:01.504Z,66.70
2018-06-11T13:00:29.816Z,66.30
2018-06-11T13:02:58.167Z,65.80
2018-06-11T13:05:26.560Z,65.60
2018-06-11T13:07:54.906Z,64.80
2018-06-11T13:10:23.255Z,62.90
2018-06-11T13:12:51.603Z,66.10
2018-06-11T13:15:19.931Z,64.60
2018-06-11T13:17:48.379Z,65.20
2018-06-11T13:20:16.707Z,64.60
2018-06-11T13:22:45.047Z,64.50
2018-06-11T13:25:13.381Z,64.70
2018-06-11T13:27:41.723Z,65.20
2018-06-11T13:30:10.059Z,66.80
2018-06-11T13:32:38.415Z,66.50
2018-06-11T13:35:06.769Z,66.00
2018-06-11T13:37:35.117Z,66.30
2018-06-11T13:40:03.485Z,65.80
2018-06-11T13:42:31.855Z,66.70
2018-06-11T13:45:00.184Z,66.70
2018-06-11T13:47:28.551Z,65.70
2018-06-11T13:49:56.899Z,66.60
2018-06-11T13:52:25.243Z,67.70
2018-06-11T13:54:53.571Z,67.20
2018-06-11T13:57:21.918Z,67.40
2018-06-11T13:59:50.365Z,66.40
2018-06-11T14:02:18.710Z,65.60
2018-06-11T14:04:47.035Z,66.30
2018-06-11T14:07:15.387Z,65.00
2018-06-11T14:09:43.720Z,66.00
2018-06-11T14:12:12.055Z,66.10
2018-06-11T14:14:40.387Z,66.70
2018-06-11T14:17:08.736Z,66.10
2018-06-11T14:19:37.067Z,66.50
2018-06-11T14:22:05.419Z,66.10
2018-06-11T14:24:33.764Z,66.40
2018-06-11T14:27:02.104Z,66.80
2018-06-11T14:29:30.426Z,66.70
2018-06-11T14:31:58.771Z,66.90
2018-06-11T14:34:27.095Z,66.70
2018-06-11T14:36:55.431Z,67.00
2018-06-11T14:39:23.807Z,68.20
2018-06-11T14:44:20.195Z,68.40
2018-06-11T14:46:48.535Z,67.70
2018-06-11T14:49:16.883Z,68.00
2018-06-11T14:51:45.207Z,68.10
2018-06-11T14:54:13.539Z,69.00
2018-06-11T14:56:41.858Z,69.50
2018-06-11T14:59:10.216Z,69.70
2018-06-11T15:01:38.531Z,69.90
2018-06-11T15:04:06.875Z,69.70
2018-06-11T15:06:35.196Z,69.60
2018-06-11T15:09:04.055Z,70.30
2018-06-11T15:11:32.375Z,70.60
2018-06-11T15:14:00.754Z,70.00
2018-06-11T15:16:29.059Z,70.00
2018-06-11T15:18:57.418Z,69.80
2018-06-11T15:21:25.754Z,70.90
2018-06-11T15:23:54.095Z,70.10
2018-06-11T15:26:22.422Z,70.40
2018-06-11T15:28:50.769Z,69.10
2018-06-11T15:31:19.091Z,69.80
2018-06-11T15:33:47.422Z,69.60
2018-06-11T15:36:15.744Z,68.80
2018-06-11T15:38:44.091Z,70.30
2018-06-11T15:41:12.419Z,70.00
2018-06-11T15:43:40.767Z,69.90
2018-06-11T15:46:09.127Z,69.90
2018-06-11T15:48:37.463Z,68.80
2018-06-11T15:51:05.896Z,69.30
2018-06-11T15:53:34.243Z,68.40
2018-06-11T15:56:02.612Z,69.20
2018-06-11T15:58:30.970Z,69.00
2018-06-11T16:00:59.321Z,68.30
2018-06-11T16:03:27.671Z,68.40
2018-06-11T16:05:56.003Z,68.10
2018-06-11T16:08:24.383Z,67.20
2018-06-11T16:10:52.727Z,67.20
2018-06-11T16:13:21.098Z,67.30
2018-06-11T16:15:49.428Z,67.30
2018-06-11T16:18:17.772Z,68.20
2018-06-11T16:20:46.136Z,67.80
2018-06-11T16:23:14.528Z,67.50
2018-06-11T16:25:42.879Z,67.30
2018-06-11T16:28:11.225Z,65.90
2018-06-11T16:30:39.574Z,67.20
2018-06-11T16:33:07.935Z,66.70
2018-06-11T16:35:36.267Z,66.30
2018-06-11T16:38:04.622Z,66.60
2018-06-11T16:40:33.109Z,66.40
2018-06-11T16:43:02.001Z,66.10
2018-06-11T16:45:30.354Z,66.50
2018-06-11T16:47:58.695Z,65.80
2018-06-11T16:50:27.055Z,66.20
2018-06-11T16:52:55.381Z,66.70
2018-06-11T16:55:23.829Z,66.40
2018-06-11T16:57:52.259Z,66.90
2018-06-11T17:00:20.591Z,66.70
2018-06-11T17:02:48.966Z,67.20
2018-06-11T17:05:17.311Z,67.00
2018-06-11T17:07:45.627Z,67.80
2018-06-11T17:10:14.003Z,67.20
2018-06-11T17:12:42.339Z,67.40
2018-06-11T17:15:10.667Z,67.60
2018-06-11T17:17:39.027Z,67.50
2018-06-11T17:20:07.439Z,67.20
2018-06-11T17:22:35.763Z,68.20
2018-06-11T17:25:04.150Z,68.90
2018-06-11T17:27:32.467Z,68.20
2018-06-11T17:30:00.862Z,67.90
2018-06-11T17:32:29.197Z,68.30
2018-06-11T17:34:57.536Z,69.10
2018-06-11T17:37:25.876Z,69.10
2018-06-11T17:39:54.211Z,69.40
2018-06-11T17:42:22.552Z,69.50
2018-06-11T17:44:50.913Z,69.00
2018-06-11T17:47:19.263Z,69.10
2018-06-11T17:49:47.602Z,68.70
2018-06-11T17:52:15.929Z,69.10
2018-06-11T17:54:44.316Z,69.00
2018-06-11T17:57:12.745Z,69.70
2018-06-11T17:59:41.071Z,69.90
2018-06-11T18:04:37.531Z,69.20
2018-06-11T18:07:05.877Z,69.50
2018-06-11T18:09:34.207Z,69.00
2018-06-11T18:12:02.527Z,69.80
2018-06-11T18:14:30.887Z,69.40
2018-06-11T18:16:59.213Z,69.60
2018-06-11T18:19:27.571Z,69.20
2018-06-11T18:21:55.904Z,68.90
2018-06-11T18:24:24.297Z,69.10
2018-06-11T18:26:52.631Z,69.60
2018-06-11T18:29:20.959Z,69.60
2018-06-11T18:31:49.298Z,69.50
2018-06-11T18:34:17.659Z,69.80
2018-06-11T18:36:46.151Z,70.10
2018-06-11T18:39:14.464Z,69.60
2018-06-11T18:41:42.799Z,70.10
2018-06-11T18:44:11.131Z,69.40
2018-06-11T18:46:39.483Z,70.10
2018-06-11T18:49:07.859Z,70.00
2018-06-11T18:51:36.300Z,69.80
2018-06-11T18:54:04.615Z,70.30
2018-06-11T18:56:33.047Z,70.00
2018-06-11T18:59:01.355Z,69.80
2018-06-11T19:01:29.823Z,70.30
2018-06-11T19:03:58.205Z,70.40
2018-06-11T19:06:26.578Z,70.50
2018-06-11T19:08:54.959Z,70.30
2018-06-11T19:11:23.407Z,70.70
2018-06-11T19:13:51.727Z,70.80
2018-06-11T19:16:20.186Z,70.90
2018-06-11T19:18:48.518Z,71.10
2018-06-11T19:21:22.343Z,70.90
2018-06-11T19:23:50.759Z,71.20
2018-06-11T19:26:19.171Z,71.50
2018-06-11T19:28:47.486Z,71.50
2018-06-11T19:31:15.835Z,71.80
2018-06-11T19:33:44.146Z,71.80
2018-06-11T19:36:12.503Z,71.90
2018-06-11T19:38:40.819Z,72.30
2018-06-11T19:41:09.156Z,72.40
2018-06-11T19:43:37.468Z,72.40
2018-06-11T19:46:06.003Z,72.40
2018-06-11T19:48:34.339Z,72.20
2018-06-11T19:51:02.740Z,72.20
2018-06-11T19:53:31.031Z,72.50
2018-06-11T19:55:59.400Z,72.30
2018-06-11T19:58:27.858Z,72.40
2018-06-11T20:00:56.215Z,72.60
2018-06-11T20:03:24.592Z,72.00
2018-06-11T20:05:52.930Z,72.70
2018-06-11T20:08:21.255Z,72.70
2018-06-11T20:10:49.615Z,73.00
2018-06-11T20:13:17.943Z,72.80
2018-06-11T20:15:46.289Z,73.20
2018-06-11T20:18:14.620Z,74.00
2018-06-11T20:20:42.994Z,74.50
2018-06-11T20:23:11.320Z,74.10
2018-06-11T20:25:39.671Z,74.00
2018-06-11T20:28:08.001Z,73.00
2018-06-11T20:30:36.349Z,73.20
2018-06-11T20:33:04.955Z,73.20
2018-06-11T20:35:33.311Z,73.40
2018-06-11T20:38:01.635Z,73.40
2018-06-11T20:40:30.015Z,73.20
2018-06-11T20:42:58.359Z,73.10
2018-06-11T20:45:26.676Z,72.90
2018-06-11T20:47:55.067Z,72.60
2018-06-11T20:50:23.395Z,72.60
2018-06-11T20:55:19.791Z,73.50
2018-06-11T20:57:48.186Z,73.20
2018-06-11T21:00:16.487Z,73.10
2018-06-11T21:02:44.826Z,73.60
2018-06-11T21:05:13.151Z,73.90
2018-06-11T21:07:41.492Z,74.00
2018-06-11T21:10:09.885Z,73.60
2018-06-11T21:12:38.248Z,73.90
2018-06-11T21:15:06.681Z,73.70
2018-06-11T21:17:35.023Z,73.40
2018-06-11T21:20:03.390Z,73.20
2018-06-11T21:22:31.729Z,73.40
2018-06-11T21:25:00.056Z,73.00
2018-06-11T21:27:28.399Z,73.70
2018-06-11T21:29:56.719Z,74.20
2018-06-11T21:32:25.075Z,73.70
2018-06-11T21:34:53.399Z,74.30
2018-06-11T21:37:21.782Z,74.30
2018-06-11T21:39:50.102Z,73.90
2018-06-11T21:42:18.451Z,74.80
2018-06-11T21:44:46.771Z,74.70
2018-06-11T21:47:15.135Z,75.30
2018-06-11T21:49:43.467Z,75.40
2018-06-11T21:52:11.818Z,76.00
2018-06-11T21:54:40.156Z,76.00
2018-06-11T21:57:08.495Z,76.20
2018-06-11T21:59:36.823Z,75.60
2018-06-11T22:02:05.175Z,75.00
2018-06-11T22:04:33.528Z,75.10
2018-06-11T22:07:01.863Z,75.10
2018-06-11T22:09:30.213Z,74.90
2018-06-11T22:11:58.554Z,75.00
2018-06-11T22:14:26.887Z,75.00
2018-06-11T22:16:55.231Z,75.50
2018-06-11T22:19:23.569Z,75.20
2018-06-11T22:21:52.015Z,75.70
2018-06-11T22:24:20.360Z,75.80
2018-06-11T22:26:48.710Z,77.40
2018-06-11T22:29:17.047Z,76.70
2018-06-11T22:31:45.415Z,78.00
2018-06-11T22:34:13.743Z,77.60
2018-06-11T22:36:42.091Z,77.50
2018-06-11T22:39:10.411Z,78.00
2018-06-11T22:41:38.794Z,77.70
2018-06-11T22:44:07.119Z,78.60
2018-06-11T22:46:35.459Z,78.10
2018-06-11T22:49:03.794Z,78.80
2018-06-11T22:51:32.115Z,80.30
2018-06-11T22:54:00.463Z,79.90
2018-06-11T22:56:28.783Z,80.30
2018-06-11T22:58:57.128Z,80.00
2018-06-11T23:01:25.448Z,80.20
2018-06-11T23:03:53.783Z,79.40
2018-06-11T23:06:22.099Z,80.10
2018-06-11T23:08:50.431Z,80.20
2018-06-11T23:11:18.748Z,80.20
2018-06-11T23:13:47.332Z,80.70
2018-06-11T23:16:15.660Z,80.10
2018-06-11T23:18:44.019Z,79.00
2018-06-11T23:21:12.331Z,79.60
2018-06-11T23:26:08.723Z,78.20
2018-06-11T23:28:37.051Z,78.50
2018-06-11T23:31:05.472Z,79.00
2018-06-11T23:33:33.817Z,79.10
2018-06-11T23:36:02.139Z,78.30
2018-06-11T23:38:30.491Z,78.30
2018-06-11T23:40:58.815Z,78.70
2018-06-11T23:43:28.010Z,78.90
2018-06-11T23:45:56.379Z,78.90
2018-06-11T23:48:24.739Z,78.90
2018-06-11T23:50:53.062Z,78.90
2018-06-11T23:53:21.411Z,78.90
2018-06-11T23:55:49.743Z,79.10
2018-06-11T23:58:18.091Z,79.20
